Time;durP1;ratioP1;P1;durP2;ratioP2;P2;SDS_P1;SDS_P2;PMS_P1;PMS_P2;Temp;Humidity;BMP_temperature;BMP_pressure;BME280_temperature;BME280_humidity;BME280_pressure;Samples;Min_cycle;Max_cycle;Signal;HPM_P1;HPM_P2
2023/10/27 00:01:56;;;;;;;29.40;11.82;;;10.60;99.90;;;;;;5068902;28;20405;-76
2023/10/27 00:04:21;;;;;;;28.63;12.55;;;10.60;99.90;;;;;;5074120;28;20485;-76
2023/10/27 00:06:47;;;;;;;29.30;11.95;;;10.60;99.90;;;;;;5056908;28;20122;-77
2023/10/27 00:09:13;;;;;;;30.85;12.52;;;10.60;99.90;;;;;;5076502;28;20043;-75
2023/10/27 00:11:38;;;;;;;28.55;11.98;;;10.60;99.90;;;;;;5072133;28;20759;-76
2023/10/27 00:14:04;;;;;;;30.80;12.88;;;10.60;99.90;;;;;;5067437;28;20440;-76
2023/10/27 00:16:29;;;;;;;32.30;13.93;;;10.60;99.90;;;;;;5045284;28;20122;-75
2023/10/27 00:18:55;;;;;;;30.77;12.38;;;10.60;99.90;;;;;;5061785;28;20453;-77
2023/10/27 00:21:21;;;;;;;32.90;12.90;;;10.60;99.90;;;;;;5073726;28;20114;-76
2023/10/27 00:23:46;;;;;;;32.05;12.52;;;10.60;99.90;;;;;;5068429;28;20028;-78
2023/10/27 00:26:12;;;;;;;28.05;12.43;;;10.60;99.90;;;;;;5067272;28;20634;-77
2023/10/27 00:28:38;;;;;;;30.05;13.13;;;10.50;99.90;;;;;;5065925;28;20197;-76
2023/10/27 00:31:04;;;;;;;36.67;14.57;;;10.50;99.90;;;;;;5062717;28;20040;-76
2023/10/27 00:33:29;;;;;;;32.58;12.85;;;10.50;99.90;;;;;;5061163;28;20032;-77
2023/10/27 00:35:55;;;;;;;35.40;13.23;;;10.50;99.90;;;;;;5085389;28;20040;-74
2023/10/27 00:38:21;;;;;;;36.38;13.00;;;10.50;99.90;;;;;;5068460;28;20052;-75
2023/10/27 00:40:47;;;;;;;36.65;13.75;;;10.60;99.90;;;;;;5086333;28;20117;-77
2023/10/27 00:43:16;;;;;;;35.85;13.73;;;10.60;99.90;;;;;;5047348;28;20292;-77
2023/10/27 00:45:50;;;;;;;34.60;13.02;;;10.60;99.90;;;;;;5046483;28;20111;-76
2023/10/27 00:48:17;;;;;;;37.85;13.57;;;10.60;99.90;;;;;;5048729;28;20060;-77
2023/10/27 00:50:44;;;;;;;35.10;13.90;;;10.60;99.90;;;;;;5050161;28;20116;-74
2023/10/27 00:53:12;;;;;;;35.10;12.55;;;10.60;99.90;;;;;;5042551;28;20170;-75
2023/10/27 00:55:39;;;;;;;36.78;13.40;;;10.60;99.90;;;;;;5055755;28;20044;-76
2023/10/27 00:58:08;;;;;;;34.30;12.30;;;10.50;99.90;;;;;;5068895;28;20029;-74
2023/10/27 01:00:34;;;;;;;36.33;13.90;;;10.50;99.90;;;;;;5048416;28;20110;-75
2023/10/27 01:03:00;;;;;;;34.42;13.15;;;10.60;99.90;;;;;;5048865;28;20021;-76
2023/10/27 01:05:25;;;;;;;40.53;13.75;;;10.60;99.90;;;;;;5047149;28;20033;-76
2023/10/27 01:07:51;;;;;;;36.53;12.55;;;10.50;99.90;;;;;;5073841;28;20133;-75
2023/10/27 01:10:17;;;;;;;35.55;13.27;;;10.50;99.90;;;;;;5047512;28;20044;-76
2023/10/27 01:12:46;;;;;;;33.85;13.63;;;10.50;99.90;;;;;;5069952;28;20139;-76
2023/10/27 01:15:12;;;;;;;40.63;14.48;;;10.50;99.90;;;;;;5073121;28;20465;-74
2023/10/27 01:17:38;;;;;;;35.88;13.57;;;10.50;99.90;;;;;;5054509;28;20056;-76
2023/10/27 01:20:04;;;;;;;38.65;13.00;;;10.50;99.90;;;;;;5050433;28;20037;-75
2023/10/27 01:22:31;;;;;;;35.58;12.02;;;10.50;99.90;;;;;;5048290;28;20037;-77
2023/10/27 01:24:56;;;;;;;40.35;13.60;;;10.50;99.90;;;;;;5048467;28;20665;-75
2023/10/27 01:27:22;;;;;;;33.20;12.27;;;10.60;99.90;;;;;;5075308;28;20039;-75
2023/10/27 01:29:47;;;;;;;43.30;13.38;;;10.50;99.90;;;;;;5055284;28;20100;-76
2023/10/27 01:32:13;;;;;;;35.60;13.10;;;10.50;99.90;;;;;;5660076;23;20045;-74
2023/10/27 01:34:38;;;;;;;36.90;12.82;;;10.50;99.90;;;;;;5028048;28;20029;-74
2023/10/27 01:37:04;;;;;;;42.47;13.60;;;10.50;99.90;;;;;;5028777;28;20099;-74
2023/10/27 01:39:30;;;;;;;35.50;13.30;;;10.50;99.90;;;;;;5030042;28;20037;-74
2023/10/27 01:41:55;;;;;;;35.15;11.27;;;10.50;99.90;;;;;;5043388;28;20478;-74
2023/10/27 01:44:21;;;;;;;36.03;11.93;;;10.50;99.90;;;;;;5048245;28;20389;-75
2023/10/27 01:46:46;;;;;;;33.03;12.35;;;10.50;99.90;;;;;;5050242;28;20017;-74
2023/10/27 01:49:12;;;;;;;38.70;12.77;;;10.50;99.90;;;;;;5048731;28;20028;-74
2023/10/27 01:51:38;;;;;;;40.17;12.88;;;10.60;99.90;;;;;;5048243;28;20029;-76
2023/10/27 01:54:03;;;;;;;30.48;11.88;;;10.60;99.90;;;;;;5046991;28;20504;-74
2023/10/27 01:56:30;;;;;;;40.05;13.13;;;10.50;99.90;;;;;;5039893;28;20487;-74
2023/10/27 01:58:56;;;;;;;30.08;13.13;;;10.50;99.90;;;;;;5046845;28;20486;-74
2023/10/27 02:01:21;;;;;;;37.30;12.10;;;10.50;99.90;;;;;;5047751;28;20159;-74
2023/10/27 02:03:47;;;;;;;40.22;11.88;;;10.60;99.90;;;;;;5049290;28;20387;-74
2023/10/27 02:06:12;;;;;;;33.67;12.20;;;10.60;99.90;;;;;;5047247;28;20041;-74
2023/10/27 02:08:38;;;;;;;36.38;11.93;;;10.50;99.90;;;;;;5049243;28;20170;-74
2023/10/27 02:11:05;;;;;;;28.42;11.38;;;10.60;99.90;;;;;;5047139;28;20033;-74
2023/10/27 02:13:31;;;;;;;27.50;10.40;;;10.60;99.90;;;;;;5042244;28;20036;-74
2023/10/27 02:15:56;;;;;;;30.35;10.77;;;10.60;99.90;;;;;;5041227;28;20029;-74
2023/10/27 02:18:22;;;;;;;32.90;11.00;;;10.60;99.90;;;;;;5047601;28;20493;-74
2023/10/27 02:20:48;;;;;;;30.52;11.55;;;10.60;99.90;;;;;;5046409;28;20041;-75
2023/10/27 02:23:17;;;;;;;30.08;11.25;;;10.60;99.90;;;;;;5041333;28;20040;-75
2023/10/27 02:25:43;;;;;;;35.38;12.20;;;10.60;99.90;;;;;;5039288;28;20064;-74
2023/10/27 02:28:08;;;;;;;31.45;11.43;;;10.60;99.90;;;;;;5030731;28;20110;-74
2023/10/27 02:30:34;;;;;;;29.58;11.02;;;10.60;99.90;;;;;;5046404;28;20444;-75
2023/10/27 02:32:59;;;;;;;29.77;11.82;;;10.60;99.90;;;;;;5039975;28;20132;-74
2023/10/27 02:35:25;;;;;;;38.15;11.88;;;10.60;99.90;;;;;;5040864;28;20033;-74
2023/10/27 02:37:53;;;;;;;31.70;11.38;;;10.60;99.90;;;;;;5047144;28;20032;-74
2023/10/27 02:40:19;;;;;;;28.85;10.82;;;10.60;99.90;;;;;;5037152;28;20466;-74
2023/10/27 02:42:44;;;;;;;28.67;9.82;;;10.60;99.90;;;;;;5043763;28;20083;-75
2023/10/27 02:45:10;;;;;;;25.90;9.90;;;10.60;99.90;;;;;;5034549;28;20037;-76
2023/10/27 02:47:36;;;;;;;30.27;10.75;;;10.60;99.90;;;;;;5026893;28;20045;-75
2023/10/27 02:50:02;;;;;;;28.70;10.82;;;10.70;99.90;;;;;;5027161;28;20099;-75
2023/10/27 02:52:27;;;;;;;30.25;10.55;;;10.60;99.90;;;;;;5034626;28;20509;-74
2023/10/27 02:54:53;;;;;;;26.75;9.30;;;10.60;99.90;;;;;;5028565;28;20040;-75
2023/10/27 02:57:18;;;;;;;25.77;10.43;;;10.60;99.90;;;;;;5031731;28;20025;-75
2023/10/27 02:59:44;;;;;;;26.67;10.45;;;10.60;99.90;;;;;;5030619;28;20072;-74
2023/10/27 03:02:11;;;;;;;26.33;9.38;;;10.70;99.90;;;;;;5035338;28;20036;-74
2023/10/27 03:04:36;;;;;;;27.73;9.80;;;10.70;99.90;;;;;;5036321;28;20041;-75
2023/10/27 03:07:02;;;;;;;26.92;9.95;;;10.60;99.90;;;;;;5029640;28;20183;-74
2023/10/27 03:09:27;;;;;;;23.52;9.45;;;10.70;99.90;;;;;;5032279;28;20044;-75
2023/10/27 03:11:53;;;;;;;24.88;10.13;;;10.70;99.90;;;;;;5039911;28;20045;-75
2023/10/27 03:14:19;;;;;;;22.55;9.18;;;10.70;99.90;;;;;;5035188;28;20046;-75
2023/10/27 03:16:44;;;;;;;28.95;11.05;;;10.70;99.90;;;;;;5034618;28;20140;-75
2023/10/27 03:19:10;;;;;;;31.25;10.80;;;10.70;99.90;;;;;;5035304;28;20462;-75
2023/10/27 03:21:36;;;;;;;33.33;9.80;;;10.70;99.90;;;;;;5038763;28;20102;-75
2023/10/27 03:24:01;;;;;;;24.58;9.38;;;10.70;99.90;;;;;;5032451;28;20025;-74
2023/10/27 03:26:27;;;;;;;24.38;9.60;;;10.70;99.90;;;;;;5039001;28;20034;-75
2023/10/27 03:28:53;;;;;;;38.03;10.65;;;10.80;99.90;;;;;;5035677;28;20124;-74
2023/10/27 03:31:19;;;;;;;26.02;10.23;;;10.70;99.90;;;;;;5044297;28;20108;-75
2023/10/27 03:33:44;;;;;;;23.75;8.98;;;10.70;99.90;;;;;;5063408;28;20059;-75
2023/10/27 03:36:10;;;;;;;22.10;8.27;;;10.70;99.90;;;;;;5047643;28;20367;-74
2023/10/27 03:38:36;;;;;;;22.35;8.50;;;10.70;99.90;;;;;;5033953;28;20087;-74
2023/10/27 03:41:01;;;;;;;27.23;9.02;;;10.70;99.90;;;;;;5054146;28;20094;-74
2023/10/27 03:43:28;;;;;;;17.88;7.57;;;10.70;99.90;;;;;;5040993;28;20028;-74
2023/10/27 03:45:54;;;;;;;22.13;9.02;;;10.70;99.90;;;;;;5040979;28;20029;-76
2023/10/27 03:48:19;;;;;;;19.10;7.72;;;10.70;99.90;;;;;;5029517;28;20033;-74
2023/10/27 03:50:45;;;;;;;20.98;8.38;;;10.70;99.90;;;;;;5046199;28;20040;-74
2023/10/27 03:53:10;;;;;;;24.67;8.77;;;10.70;99.90;;;;;;5027190;28;20056;-74
2023/10/27 03:55:36;;;;;;;22.02;7.75;;;10.70;99.90;;;;;;5028909;28;20037;-74
2023/10/27 03:58:17;;;;;;;21.58;8.35;;;10.70;99.90;;;;;;5039587;28;20037;-75
2023/10/27 04:00:43;;;;;;;21.88;7.97;;;10.70;99.90;;;;;;5052408;28;20098;-74
2023/10/27 04:03:10;;;;;;;16.02;7.03;;;10.70;99.90;;;;;;5034360;28;20021;-73
2023/10/27 04:05:36;;;;;;;20.35;7.55;;;10.70;99.90;;;;;;5033219;28;20911;-74
2023/10/27 04:08:01;;;;;;;19.67;7.93;;;10.70;99.90;;;;;;5035496;28;20116;-73
2023/10/27 04:10:31;;;;;;;20.65;8.35;;;10.70;99.90;;;;;;5040023;28;20029;-74
2023/10/27 04:12:57;;;;;;;25.20;7.60;;;10.70;99.90;;;;;;5057318;28;20082;-75
2023/10/27 04:15:22;;;;;;;22.25;8.15;;;10.70;99.90;;;;;;5046010;28;20528;-76
2023/10/27 04:17:48;;;;;;;21.10;8.32;;;10.70;99.90;;;;;;5044918;28;20036;-76
2023/10/27 04:20:13;;;;;;;19.67;7.70;;;10.80;99.90;;;;;;5051147;28;20040;-73
2023/10/27 04:22:39;;;;;;;15.35;7.30;;;10.70;99.90;;;;;;5048396;28;20040;-74
2023/10/27 04:25:05;;;;;;;17.77;7.38;;;10.70;99.90;;;;;;5047307;28;20029;-74
2023/10/27 04:27:31;;;;;;;24.25;7.97;;;10.80;99.90;;;;;;5040951;28;20037;-73
2023/10/27 04:29:57;;;;;;;17.35;7.25;;;10.80;99.90;;;;;;5050912;28;20039;-75
2023/10/27 04:32:24;;;;;;;17.55;6.93;;;10.80;99.90;;;;;;5070023;28;20075;-76
2023/10/27 04:34:50;;;;;;;15.98;6.80;;;10.80;99.90;;;;;;5051961;28;20037;-74
2023/10/27 04:37:16;;;;;;;21.20;7.60;;;10.80;99.90;;;;;;5047074;28;20047;-74
2023/10/27 04:39:41;;;;;;;19.10;7.40;;;10.80;99.90;;;;;;5043828;28;20040;-74
2023/10/27 04:42:07;;;;;;;18.38;6.68;;;10.80;99.90;;;;;;5056590;28;20041;-74
2023/10/27 04:44:33;;;;;;;21.92;7.80;;;10.80;99.90;;;;;;5039203;28;20041;-74
2023/10/27 04:46:58;;;;;;;22.92;7.20;;;10.80;99.90;;;;;;5043006;28;20065;-75
2023/10/27 04:49:26;;;;;;;17.17;6.85;;;10.80;99.90;;;;;;5043069;28;20051;-74
2023/10/27 04:51:51;;;;;;;14.18;6.18;;;10.80;99.90;;;;;;5051935;28;20058;-74
2023/10/27 04:54:17;;;;;;;15.27;6.05;;;10.80;99.90;;;;;;5054031;28;20083;-73
2023/10/27 04:56:43;;;;;;;20.83;7.63;;;10.80;99.90;;;;;;5063806;28;20688;-75
2023/10/27 04:59:09;;;;;;;17.35;6.93;;;10.80;99.90;;;;;;5050018;28;20066;-75
2023/10/27 05:01:35;;;;;;;18.00;6.93;;;10.80;99.90;;;;;;5036239;28;20043;-75
2023/10/27 05:04:01;;;;;;;14.57;6.65;;;10.90;99.90;;;;;;5056679;28;20024;-75
2023/10/27 05:06:26;;;;;;;18.75;6.55;;;10.80;99.90;;;;;;5061556;28;20024;-75
2023/10/27 05:08:52;;;;;;;16.63;6.88;;;10.80;99.90;;;;;;5069558;28;20393;-74
2023/10/27 05:11:18;;;;;;;20.95;7.05;;;10.80;99.90;;;;;;5056086;28;20560;-75
2023/10/27 05:13:44;;;;;;;16.13;6.68;;;10.80;99.90;;;;;;5063473;28;20445;-75
2023/10/27 05:16:09;;;;;;;15.20;6.25;;;10.80;99.90;;;;;;5042917;28;20052;-75
2023/10/27 05:18:35;;;;;;;15.90;5.78;;;10.80;99.90;;;;;;5043799;28;20400;-75
2023/10/27 05:21:00;;;;;;;14.32;5.05;;;10.90;99.90;;;;;;5038452;28;20028;-74
2023/10/27 05:23:26;;;;;;;12.43;4.90;;;10.80;99.90;;;;;;5053548;28;20082;-75
2023/10/27 05:25:52;;;;;;;14.98;6.13;;;10.80;99.90;;;;;;5061489;28;20128;-74
2023/10/27 05:28:18;;;;;;;13.65;5.07;;;10.80;99.90;;;;;;5056325;28;20114;-76
2023/10/27 05:30:46;;;;;;;13.65;5.43;;;10.80;99.90;;;;;;5066797;28;20494;-75
2023/10/27 05:33:12;;;;;;;13.57;5.40;;;10.80;99.90;;;;;;5045548;28;20445;-75
2023/10/27 05:35:38;;;;;;;15.82;5.35;;;10.80;99.90;;;;;;5044082;28;20028;-75
2023/10/27 05:38:04;;;;;;;18.85;5.75;;;10.80;99.90;;;;;;5054112;28;20025;-74
2023/10/27 05:40:31;;;;;;;13.10;5.65;;;10.80;99.90;;;;;;5051169;28;20090;-74
2023/10/27 05:42:57;;;;;;;13.57;6.00;;;10.80;99.90;;;;;;5044490;28;20489;-75
2023/10/27 05:45:23;;;;;;;16.35;5.93;;;10.80;99.90;;;;;;5043516;28;20029;-75
2023/10/27 05:47:48;;;;;;;13.63;5.47;;;10.80;99.90;;;;;;5043381;28;20033;-74
2023/10/27 05:50:14;;;;;;;14.52;5.53;;;10.80;99.90;;;;;;5062436;28;20093;-76
2023/10/27 05:52:40;;;;;;;14.23;5.55;;;10.80;99.90;;;;;;5046586;28;20036;-73
2023/10/27 05:55:05;;;;;;;15.48;5.30;;;10.80;99.90;;;;;;5046533;28;20110;-73
2023/10/27 05:57:32;;;;;;;13.65;4.80;;;10.80;99.90;;;;;;5061445;28;20056;-74
2023/10/27 05:59:58;;;;;;;12.10;5.05;;;10.80;99.90;;;;;;5059678;28;20087;-74
2023/10/27 06:02:23;;;;;;;15.23;4.97;;;10.80;99.90;;;;;;5058746;28;20398;-76
2023/10/27 06:04:49;;;;;;;12.20;5.57;;;10.80;99.90;;;;;;5053177;28;20044;-73
2023/10/27 06:07:18;;;;;;;14.20;4.97;;;10.80;99.90;;;;;;5054256;28;20116;-75
2023/10/27 06:09:44;;;;;;;9.63;4.65;;;10.80;99.90;;;;;;5067888;28;20036;-74
2023/10/27 06:12:09;;;;;;;10.10;4.53;;;10.90;99.90;;;;;;5045677;28;20036;-73
2023/10/27 06:14:35;;;;;;;14.88;5.15;;;10.90;99.90;;;;;;5058687;28;20036;-74
2023/10/27 06:17:01;;;;;;;12.35;4.63;;;10.80;99.90;;;;;;5038021;28;20462;-74
2023/10/27 06:19:27;;;;;;;11.15;4.68;;;10.80;99.90;;;;;;5035938;28;20037;-75
2023/10/27 06:22:00;;;;;;;13.10;4.97;;;10.80;99.90;;;;;;5059456;28;20039;-75
2023/10/27 06:24:25;;;;;;;9.40;4.18;;;10.90;99.90;;;;;;5055688;28;20040;-72
2023/10/27 06:26:51;;;;;;;12.90;4.82;;;10.80;99.90;;;;;;5061206;28;20025;-72
2023/10/27 06:29:17;;;;;;;11.48;3.97;;;10.80;99.90;;;;;;5058631;28;20074;-73
2023/10/27 06:31:43;;;;;;;10.65;4.35;;;10.80;99.90;;;;;;5045965;28;20036;-75
2023/10/27 06:34:08;;;;;;;11.60;4.38;;;10.80;99.90;;;;;;5058369;28;20414;-73
2023/10/27 06:36:34;;;;;;;10.75;4.35;;;10.80;99.90;;;;;;5041922;28;20040;-73
2023/10/27 06:39:01;;;;;;;11.07;4.60;;;10.80;99.90;;;;;;5054271;28;20033;-73
2023/10/27 06:41:26;;;;;;;11.00;4.80;;;10.80;99.90;;;;;;5047695;28;20067;-74
2023/10/27 06:43:52;;;;;;;10.07;4.05;;;10.90;99.90;;;;;;5033032;28;20076;-73
2023/10/27 06:46:18;;;;;;;10.57;3.80;;;10.80;99.90;;;;;;5045076;28;20394;-72
2023/10/27 06:48:43;;;;;;;10.15;4.32;;;10.80;99.90;;;;;;5044302;28;20131;-73
2023/10/27 06:51:09;;;;;;;9.15;3.65;;;10.80;99.90;;;;;;5066688;28;20029;-73
2023/10/27 06:53:34;;;;;;;12.63;4.82;;;10.80;99.90;;;;;;5044934;28;20705;-72
2023/10/27 06:56:00;;;;;;;10.43;4.28;;;10.80;99.90;;;;;;5060832;28;20106;-73
2023/10/27 06:58:25;;;;;;;11.73;4.32;;;10.80;99.90;;;;;;5065764;28;20855;-73
2023/10/27 07:00:51;;;;;;;14.50;5.45;;;10.80;99.90;;;;;;5044361;28;20444;-72
2023/10/27 07:03:17;;;;;;;10.18;4.32;;;10.90;99.90;;;;;;5066705;28;20060;-73
2023/10/27 07:05:42;;;;;;;10.35;4.10;;;10.90;99.90;;;;;;5055335;28;20090;-73
2023/10/27 07:08:09;;;;;;;11.68;4.60;;;10.90;99.90;;;;;;5059296;28;20074;-75
2023/10/27 07:10:35;;;;;;;9.38;4.15;;;10.90;99.90;;;;;;5035238;28;20472;-72
2023/10/27 07:13:01;;;;;;;13.48;4.70;;;10.90;99.90;;;;;;5055466;28;20060;-76
2023/10/27 07:15:27;;;;;;;11.60;4.60;;;10.90;99.90;;;;;;5049798;28;20052;-73
2023/10/27 07:17:52;;;;;;;11.55;4.40;;;10.90;99.90;;;;;;5050403;28;20036;-73
2023/10/27 07:20:18;;;;;;;9.38;3.83;;;10.90;99.90;;;;;;5043236;28;20037;-73
2023/10/27 07:22:43;;;;;;;10.93;4.15;;;11.00;99.90;;;;;;5067951;28;20561;-72
2023/10/27 07:25:09;;;;;;;9.35;3.65;;;11.00;99.90;;;;;;5055957;28;20068;-76
2023/10/27 07:27:35;;;;;;;8.35;3.80;;;11.00;99.90;;;;;;5035243;28;20029;-74
2023/10/27 07:30:01;;;;;;;8.43;3.75;;;10.90;99.90;;;;;;5035186;28;20079;-76
2023/10/27 10:25:56;;;;;;;5.53;2.75;;;11.50;99.90;;;;;;5381952;22;20081;-79
2023/10/27 10:28:25;;;;;;;4.72;2.08;;;11.50;99.90;;;;;;5053287;28;20081;-77
2023/10/27 10:31:06;;;;;;;3.65;1.77;;;11.50;99.90;;;;;;5049928;28;20095;-77
2023/10/27 10:33:32;;;;;;;;;;;11.50;99.90;;;;;;5033477;28;20033;-78
2023/10/27 10:36:22;;;;;;;3.08;1.48;;;11.50;99.90;;;;;;5029371;28;19913;-76
2023/10/27 10:38:57;;;;;;;3.60;1.63;;;11.50;99.90;;;;;;5050920;28;20064;-76
2023/10/27 10:41:43;;;;;;;3.08;1.60;;;11.50;99.90;;;;;;5034237;28;20041;-77
2023/10/27 10:44:14;;;;;;;2.53;1.25;;;11.50;99.90;;;;;;5021490;28;20029;-77
2023/10/27 10:46:40;;;;;;;1.40;0.90;;;11.50;99.90;;;;;;5046594;28;20127;-77
2023/10/27 10:49:06;;;;;;;2.63;1.20;;;11.50;99.90;;;;;;5036662;28;20064;-76
2023/10/27 10:51:39;;;;;;;3.35;1.58;;;11.60;99.90;;;;;;5050885;28;20075;-78
2023/10/27 10:54:14;;;;;;;3.00;1.52;;;11.60;99.90;;;;;;5040913;28;20021;-77
2023/10/27 10:56:40;;;;;;;2.40;1.27;;;11.70;99.90;;;;;;5025191;28;20121;-77
2023/10/27 10:59:05;;;;;;;3.40;1.23;;;11.70;99.90;;;;;;5038702;28;20918;-77
2023/10/27 11:01:31;;;;;;;3.92;0.82;;;11.70;99.90;;;;;;5052838;28;20048;-78
2023/10/27 11:03:57;;;;;;;1.75;0.70;;;11.80;99.90;;;;;;5041818;28;20056;-76
2023/10/27 11:06:28;;;;;;;1.35;0.70;;;11.70;99.90;;;;;;5047017;28;20025;-76
2023/10/27 11:08:53;;;;;;;;;;;11.70;99.90;;;;;;5034330;28;20025;-76
2023/10/27 11:11:20;;;;;;;2.83;0.80;;;11.70;99.90;;;;;;5050170;28;19919;-77
2023/10/27 11:13:51;;;;;;;1.00;0.52;;;11.70;99.90;;;;;;5034045;28;20037;-78
2023/10/27 11:16:22;;;;;;;1.73;0.90;;;11.70;99.90;;;;;;5026713;28;20510;-76
2023/10/27 11:18:49;;;;;;;4.57;1.23;;;11.60;99.90;;;;;;5033352;28;20033;-77
2023/10/27 11:21:23;;;;;;;3.05;1.02;;;11.60;99.90;;;;;;5030838;28;20456;-78
2023/10/27 11:23:49;;;;;;;1.98;0.98;;;11.60;99.90;;;;;;5031572;28;20033;-77
2023/10/27 11:26:16;;;;;;;2.65;1.35;;;11.60;99.90;;;;;;5047728;28;20065;-76
2023/10/27 11:28:43;;;;;;;3.33;1.40;;;11.60;99.90;;;;;;5024871;28;20105;-79
2023/10/27 11:31:19;;;;;;;2.67;1.33;;;11.60;99.90;;;;;;5027762;28;20025;-77
2023/10/27 11:34:03;;;;;;;5.18;1.88;;;11.60;99.90;;;;;;5029327;28;20552;-77
2023/10/27 11:36:34;;;;;;;2.47;1.33;;;11.60;99.90;;;;;;5049163;28;20037;-77
2023/10/27 11:39:16;;;;;;;3.70;0.88;;;11.60;99.90;;;;;;5022811;28;20090;-77
2023/10/27 11:41:51;;;;;;;2.08;0.93;;;11.60;99.90;;;;;;5029422;28;20033;-77
2023/10/27 11:44:17;;;;;;;4.22;1.15;;;11.60;99.90;;;;;;5044401;28;20044;-77
2023/10/27 11:46:47;;;;;;;4.45;1.00;;;11.60;99.90;;;;;;5023782;28;20033;-77
2023/10/27 11:49:16;;;;;;;3.22;1.05;;;11.60;99.90;;;;;;5031838;28;20038;-76
2023/10/27 11:51:43;;;;;;;4.50;1.52;;;11.60;99.90;;;;;;5029689;28;20470;-76
2023/10/27 11:54:08;;;;;;;1.35;0.80;;;11.60;99.90;;;;;;5037702;28;20062;-75
2023/10/27 11:56:34;;;;;;;2.67;1.08;;;11.50;99.90;;;;;;5031829;28;20045;-77
2023/10/27 11:58:59;;;;;;;3.25;1.20;;;11.50;99.90;;;;;;5045110;28;20033;-76
2023/10/27 12:01:25;;;;;;;3.08;1.00;;;11.50;99.90;;;;;;5023983;28;20155;-76
2023/10/27 12:03:50;;;;;;;2.15;1.10;;;11.60;99.90;;;;;;5040480;28;20498;-77
2023/10/27 12:06:16;;;;;;;2.00;1.10;;;11.60;99.90;;;;;;5048090;28;20025;-78
2023/10/27 12:08:41;;;;;;;1.52;0.98;;;11.60;99.90;;;;;;5069250;28;20039;-75
2023/10/27 12:11:07;;;;;;;2.08;1.17;;;11.70;99.90;;;;;;5042956;28;20057;-77
2023/10/27 12:13:33;;;;;;;2.35;1.13;;;11.70;99.90;;;;;;5015853;28;20040;-77
2023/10/27 12:15:58;;;;;;;3.10;1.40;;;11.80;99.90;;;;;;5019306;28;20112;-79
2023/10/27 12:18:24;;;;;;;1.88;1.38;;;11.80;99.90;;;;;;5015518;28;20026;-77
2023/10/27 12:20:50;;;;;;;3.65;1.38;;;11.80;99.90;;;;;;5041989;28;20095;-76
2023/10/27 12:23:18;;;;;;;2.58;1.20;;;11.80;99.90;;;;;;5032914;28;20037;-75
2023/10/27 12:25:43;;;;;;;3.58;1.65;;;11.80;99.90;;;;;;5042489;28;20094;-75
2023/10/27 12:28:09;;;;;;;4.57;1.65;;;11.80;99.90;;;;;;5040599;28;20033;-77
2023/10/27 12:30:36;;;;;;;6.65;1.60;;;11.80;99.90;;;;;;5019859;28;20120;-77
2023/10/27 12:33:03;;;;;;;3.05;1.60;;;11.80;99.90;;;;;;5034191;28;20036;-76
2023/10/27 12:35:30;;;;;;;3.70;1.70;;;11.80;99.90;;;;;;5042242;28;20041;-78
2023/10/27 12:37:56;;;;;;;4.68;2.08;;;11.80;99.90;;;;;;5012481;28;20041;-75
2023/10/27 12:40:25;;;;;;;11.95;1.95;;;11.70;99.90;;;;;;5029744;28;20033;-76
2023/10/27 12:42:52;;;;;;;3.60;2.00;;;11.70;99.90;;;;;;5048277;28;20038;-76
2023/10/27 12:45:18;;;;;;;5.40;2.85;;;11.70;99.90;;;;;;5053735;28;20163;-76
2023/10/27 12:47:45;;;;;;;4.18;2.10;;;11.70;99.90;;;;;;5059318;28;20067;-77
2023/10/27 12:50:12;;;;;;;5.25;2.53;;;11.70;99.90;;;;;;5038097;28;20060;-77
2023/10/27 12:52:38;;;;;;;3.78;1.85;;;11.70;99.90;;;;;;5034738;28;20102;-76
2023/10/27 12:55:08;;;;;;;5.22;1.98;;;11.70;99.90;;;;;;5035335;28;20032;-77
2023/10/27 12:57:34;;;;;;;3.60;1.80;;;11.60;99.90;;;;;;5050399;28;20037;-76
2023/10/27 13:00:01;;;;;;;4.05;1.88;;;11.60;99.90;;;;;;5059811;28;20029;-77
2023/10/27 13:02:27;;;;;;;6.38;2.45;;;11.60;99.90;;;;;;5032660;28;20060;-76
2023/10/27 13:04:53;;;;;;;6.72;3.17;;;11.60;99.90;;;;;;5033697;28;20628;-77
2023/10/27 13:07:19;;;;;;;6.65;2.72;;;11.60;99.90;;;;;;5034641;28;20056;-76
2023/10/27 13:09:45;;;;;;;5.20;2.50;;;11.60;99.90;;;;;;5031598;28;20041;-76
2023/10/27 13:12:11;;;;;;;4.75;2.47;;;11.60;99.90;;;;;;5032861;28;20033;-76
2023/10/27 13:14:41;;;;;;;5.40;2.80;;;11.60;99.90;;;;;;5053645;28;20037;-77
2023/10/27 13:17:07;;;;;;;5.80;2.50;;;11.70;99.90;;;;;;5044677;28;20437;-76
2023/10/27 13:19:35;;;;;;;4.38;2.28;;;11.60;99.90;;;;;;5035463;28;20037;-77
2023/10/27 13:22:01;;;;;;;5.45;2.17;;;11.60;99.90;;;;;;5032193;28;20418;-77
2023/10/27 13:24:27;;;;;;;6.32;2.90;;;11.60;99.90;;;;;;5045052;28;20037;-77
2023/10/27 13:26:54;;;;;;;6.20;2.83;;;11.60;99.90;;;;;;5053699;28;20140;-76
2023/10/27 13:29:19;;;;;;;5.32;2.78;;;11.60;99.90;;;;;;5048058;28;20072;-76
2023/10/27 13:31:45;;;;;;;5.45;2.80;;;11.60;99.90;;;;;;5047346;28;20493;-78
2023/10/27 13:34:14;;;;;;;4.45;2.40;;;11.60;99.90;;;;;;5071035;28;20032;-77
2023/10/27 13:36:43;;;;;;;6.72;2.55;;;11.60;99.90;;;;;;5061842;28;20283;-76
2023/10/27 13:39:10;;;;;;;5.55;2.75;;;11.60;99.90;;;;;;5039771;28;20120;-78
2023/10/27 13:41:36;;;;;;;5.78;2.65;;;11.60;99.90;;;;;;5026656;28;20118;-76
2023/10/27 13:44:07;;;;;;;6.40;2.92;;;11.60;99.90;;;;;;5049473;28;20449;-75
2023/10/27 13:46:33;;;;;;;9.00;3.08;;;11.60;99.90;;;;;;5034110;28;20025;-75
2023/10/27 13:48:59;;;;;;;6.95;2.95;;;11.70;99.90;;;;;;5041439;28;20401;-78
2023/10/27 13:51:24;;;;;;;8.15;3.25;;;11.70;99.90;;;;;;5048109;28;20043;-77
2023/10/27 13:53:51;;;;;;;9.40;3.22;;;11.70;99.90;;;;;;5054112;28;20036;-73
2023/10/27 13:56:17;;;;;;;5.55;2.90;;;11.80;99.90;;;;;;5045642;28;20028;-75
2023/10/27 13:58:46;;;;;;;7.53;2.65;;;11.90;99.90;;;;;;5044075;28;20044;-76
2023/10/27 14:01:12;;;;;;;5.35;2.33;;;11.90;99.90;;;;;;5028136;28;20528;-76
2023/10/27 14:03:41;;;;;;;4.57;2.30;;;12.00;99.90;;;;;;5046689;28;20041;-76
2023/10/27 14:06:13;;;;;;;3.67;1.27;;;12.00;99.90;;;;;;5016553;28;20053;-74
2023/10/27 14:08:41;;;;;;;1.65;1.10;;;12.10;99.90;;;;;;5018424;28;20037;-75
2023/10/27 14:11:07;;;;;;;2.78;1.05;;;12.00;99.90;;;;;;5047476;28;20766;-74
2023/10/27 14:13:33;;;;;;;2.15;0.80;;;12.00;99.90;;;;;;5047989;28;20039;-76
2023/10/27 14:15:59;;;;;;;2.88;1.23;;;12.00;99.90;;;;;;5045023;28;20120;-75
2023/10/27 14:18:26;;;;;;;3.33;1.38;;;12.10;99.90;;;;;;5038514;28;20091;-75
2023/10/27 14:20:55;;;;;;;3.17;1.20;;;12.10;99.90;;;;;;5045613;28;20133;-76
2023/10/27 14:23:21;;;;;;;4.50;1.15;;;12.20;99.90;;;;;;5036033;28;20068;-76
2023/10/27 14:25:47;;;;;;;4.40;1.38;;;12.10;99.90;;;;;;5048577;28;20086;-74
2023/10/27 14:28:13;;;;;;;3.22;1.20;;;12.10;99.90;;;;;;5030322;28;20040;-76
2023/10/27 14:30:39;;;;;;;2.13;1.10;;;12.10;99.90;;;;;;5048027;28;20040;-75
2023/10/27 14:33:04;;;;;;;5.28;1.88;;;12.20;99.90;;;;;;5051508;28;20041;-75
2023/10/27 14:35:31;;;;;;;2.22;1.13;;;12.20;99.90;;;;;;5049623;28;20083;-74
2023/10/27 14:37:56;;;;;;;2.55;1.00;;;12.20;99.90;;;;;;5045859;28;20034;-75
2023/10/27 14:40:23;;;;;;;3.55;1.20;;;12.20;99.90;;;;;;5026104;28;20901;-75
2023/10/27 14:42:49;;;;;;;3.85;1.20;;;12.10;99.90;;;;;;5047549;28;20774;-75
2023/10/27 14:45:15;;;;;;;3.40;1.40;;;12.10;99.90;;;;;;5030050;28;20033;-76
2023/10/27 14:47:44;;;;;;;5.25;1.25;;;12.20;99.90;;;;;;5044717;28;20047;-75
2023/10/27 14:50:10;;;;;;;1.75;1.05;;;12.10;99.90;;;;;;5048325;28;20078;-76
2023/10/27 14:52:36;;;;;;;4.50;1.50;;;12.20;99.90;;;;;;5063280;28;20047;-76
2023/10/27 14:55:03;;;;;;;4.68;1.27;;;12.10;99.90;;;;;;5043522;28;20032;-75
2023/10/27 14:57:29;;;;;;;5.70;1.23;;;12.20;99.90;;;;;;5050762;28;20033;-76
2023/10/27 14:59:54;;;;;;;2.20;1.02;;;12.10;99.90;;;;;;5028452;28;20033;-76
2023/10/27 15:02:20;;;;;;;3.58;1.42;;;12.10;99.90;;;;;;5048200;28;20496;-75
2023/10/27 15:04:46;;;;;;;2.58;1.38;;;12.10;99.90;;;;;;5029075;28;20571;-76
2023/10/27 15:07:12;;;;;;;2.97;1.48;;;12.10;99.90;;;;;;5025428;28;20033;-76
2023/10/27 15:09:38;;;;;;;3.65;1.60;;;12.00;99.90;;;;;;5058381;28;20052;-75
2023/10/27 15:12:05;;;;;;;2.42;1.27;;;12.00;99.90;;;;;;5068095;28;20024;-79
2023/10/27 15:14:31;;;;;;;2.67;1.23;;;12.00;99.90;;;;;;5049758;28;20091;-78
2023/10/27 15:16:57;;;;;;;2.72;1.42;;;12.00;99.90;;;;;;5032461;28;20126;-78
2023/10/27 15:19:24;;;;;;;2.10;1.58;;;12.00;99.90;;;;;;5032470;28;20079;-77
2023/10/27 15:21:49;;;;;;;3.15;1.50;;;12.00;99.90;;;;;;5032653;28;20029;-80
2023/10/27 15:24:15;;;;;;;4.88;1.48;;;12.00;99.90;;;;;;5050037;28;20389;-77
2023/10/27 15:26:41;;;;;;;2.75;1.30;;;12.00;99.90;;;;;;5047867;28;20383;-78
2023/10/27 15:29:07;;;;;;;3.60;1.50;;;12.00;99.90;;;;;;5039854;28;20379;-78